createdAt,value
2022-08-31T00:03:36.516Z,12.1
2022-08-31T00:18:04.643Z,12.1
2022-08-31T00:32:31.953Z,12.2
2022-08-31T00:47:00.146Z,12.1
2022-08-31T01:01:28.524Z,12.3
2022-08-31T01:15:57.289Z,12.4
2022-08-31T01:30:27.242Z,12.5
2022-08-31T01:44:54.439Z,12.3
2022-08-31T01:59:28.568Z,12.8
2022-08-31T02:13:49.255Z,13.6
2022-08-31T02:28:22.681Z,13.9
2022-08-31T02:42:54.528Z,13.4
2022-08-31T02:57:16.634Z,13.9
2022-08-31T03:11:43.447Z,14.2
2022-08-31T03:26:06.801Z,15.8
2022-08-31T03:40:34.954Z,15.7
2022-08-31T03:55:02.618Z,15.1
2022-08-31T04:09:29.027Z,15.1
2022-08-31T04:24:01.536Z,15
2022-08-31T04:38:30.665Z,16.1
2022-08-31T04:53:04.462Z,15.6
2022-08-31T05:07:30.664Z,15.3
2022-08-31T05:22:00.596Z,15.5
2022-08-31T05:36:24.590Z,15.6
2022-08-31T05:50:52.376Z,15.2
2022-08-31T06:05:19.934Z,15.2
2022-08-31T06:19:48.576Z,15.1
2022-08-31T06:34:11.971Z,15.5
2022-08-31T06:48:46.431Z,15.3
2022-08-31T07:03:19.210Z,14.9
2022-08-31T07:17:43.769Z,14.9
2022-08-31T07:32:19.767Z,14.9
2022-08-31T07:46:50.310Z,14.6
2022-08-31T08:01:17.425Z,14.7
2022-08-31T08:15:53.685Z,14.4
2022-08-31T08:30:24.426Z,14.2
2022-08-31T08:44:49.382Z,13.9
2022-08-31T08:59:21.263Z,13.7
2022-08-31T09:13:48.555Z,13.6
2022-08-31T09:28:17.048Z,13.5
2022-08-31T09:42:50.195Z,13.3
2022-08-31T09:57:15.451Z,13.3
2022-08-31T10:11:43.980Z,13
2022-08-31T10:26:11.804Z,12.3
2022-08-31T10:40:45.433Z,12.4
2022-08-31T10:55:14.778Z,12.2
2022-08-31T11:09:38.632Z,12.8
2022-08-31T11:24:08.958Z,12.3
2022-08-31T11:38:34.936Z,12
2022-08-31T11:53:06.205Z,11.9
2022-08-31T12:07:33.134Z,11.4
2022-08-31T12:22:00.365Z,11.5
2022-08-31T12:36:22.669Z,11.9
2022-08-31T12:50:53.412Z,11.4
2022-08-31T13:05:16.541Z,11.6
2022-08-31T13:19:46.141Z,12.3
2022-08-31T13:34:15.717Z,12
2022-08-31T13:48:42.792Z,12.1
2022-08-31T14:03:11.159Z,11.9
2022-08-31T14:17:39.249Z,12.3
2022-08-31T14:32:03.409Z,11.1
2022-08-31T14:46:30.447Z,11.7
2022-08-31T15:01:02.217Z,11.4
2022-08-31T15:15:31.319Z,11.6
2022-08-31T15:29:57.667Z,11.4
2022-08-31T15:44:25.738Z,11.1
2022-08-31T15:58:52.377Z,11
2022-08-31T16:13:20.776Z,11.3
2022-08-31T16:27:47.516Z,11.4
2022-08-31T16:42:14.427Z,11.6
2022-08-31T16:56:52.654Z,12.4
2022-08-31T17:11:12.279Z,11.2
2022-08-31T17:25:39.858Z,10.8
2022-08-31T17:40:05.736Z,11.3
2022-08-31T17:54:32.314Z,11.2
2022-08-31T18:08:59.195Z,11.1
2022-08-31T18:23:32.554Z,11.2
2022-08-31T18:38:02.389Z,11.2
2022-08-31T18:52:26.456Z,11.3
2022-08-31T19:06:53.548Z,11.3
2022-08-31T19:21:27.710Z,11.1
2022-08-31T19:35:54.580Z,10.8
2022-08-31T19:50:19.759Z,10.9
2022-08-31T20:04:47.602Z,10.5
2022-08-31T20:19:14.792Z,10.6
2022-08-31T20:33:42.324Z,10.8
2022-08-31T20:48:22.274Z,10.9
2022-08-31T21:02:48.327Z,10.9
2022-08-31T21:17:10.404Z,10.7
2022-08-31T21:32:03.748Z,10.7
2022-08-31T21:46:17.854Z,11.1
2022-08-31T22:00:44.532Z,10.7
2022-08-31T22:15:11.551Z,10.8
2022-08-31T22:29:43.748Z,11
2022-08-31T22:44:12.413Z,10.8
2022-08-31T22:58:34.758Z,10.6
2022-08-31T23:13:02.643Z,10.6
2022-08-31T23:27:31.147Z,10.8
2022-08-31T23:41:59.701Z,10.9
2022-08-31T23:56:26.484Z,11
